Time;durP1;ratioP1;P1;durP2;ratioP2;P2;SDS_P1;SDS_P2;PMS_P1;PMS_P2;Temp;Humidity;BMP_temperature;BMP_pressure;BME280_temperature;BME280_humidity;BME280_pressure;Samples;Min_cycle;Max_cycle;Signal;HPM_P1;HPM_P2
2021/07/06 00:01:45;;;;;;;0.00;0.00;;;22.50;78.30;;;;;;4208336;28;20047;-50
2021/07/06 00:04:07;;;;;;;0.03;0.03;;;22.40;78.30;;;;;;4208494;28;20058;-50
2021/07/06 00:06:29;;;;;;;0.63;0.63;;;22.40;78.30;;;;;;4208411;28;20490;-52
2021/07/06 00:08:51;;;;;;;0.10;0.10;;;22.40;78.40;;;;;;4208209;28;20044;-52
2021/07/06 00:11:13;;;;;;;1.60;1.50;;;22.40;78.40;;;;;;4195394;28;20053;-54
2021/07/06 00:13:37;;;;;;;0.00;0.00;;;22.40;78.40;;;;;;4191425;28;20426;-52
2021/07/06 00:15:59;;;;;;;0.38;0.38;;;22.40;78.50;;;;;;4191667;28;20503;-54
2021/07/06 00:18:21;;;;;;;1.00;0.93;;;22.40;78.60;;;;;;4191209;28;20075;-54
2021/07/06 00:20:44;;;;;;;0.52;0.52;;;22.40;78.60;;;;;;4191259;28;20052;-50
2021/07/06 00:23:07;;;;;;;0.08;0.08;;;22.40;78.60;;;;;;4204861;28;20064;-50
2021/07/06 00:25:29;;;;;;;1.38;0.65;;;22.40;78.70;;;;;;4208288;28;20062;-49
2021/07/06 00:27:53;;;;;;;0.57;0.57;;;22.40;78.80;;;;;;4207821;28;20768;-53
2021/07/06 00:30:18;;;;;;;0.00;0.00;;;22.40;78.80;;;;;;4208206;28;20048;-53
2021/07/06 00:32:40;;;;;;;0.10;0.10;;;22.40;78.90;;;;;;4208143;28;20044;-52
2021/07/06 00:35:04;;;;;;;0.00;0.00;;;22.40;78.80;;;;;;4207881;28;20082;-52
2021/07/06 00:37:52;;;;;;;0.20;0.20;;;22.40;78.90;;;;;;4182655;28;20051;-52
2021/07/06 00:40:15;;;;;;;0.47;0.47;;;22.40;78.90;;;;;;4191425;28;20054;-51
2021/07/06 00:42:42;;;;;;;0.30;0.30;;;22.40;79.00;;;;;;4191324;28;20046;-51
2021/07/06 00:45:04;;;;;;;0.00;0.00;;;22.40;79.00;;;;;;4188708;28;20060;-51
2021/07/06 00:47:35;;;;;;;0.47;0.47;;;22.40;79.00;;;;;;4174780;28;20060;-51
2021/07/06 00:49:57;;;;;;;0.00;0.00;;;22.40;79.00;;;;;;4190048;28;20041;-50
2021/07/06 00:52:19;;;;;;;0.10;0.10;;;22.40;79.10;;;;;;4202151;28;20051;-49
2021/07/06 00:54:41;;;;;;;0.10;0.10;;;22.40;79.10;;;;;;4207855;28;20413;-52
2021/07/06 00:57:05;;;;;;;0.20;0.20;;;22.40;79.20;;;;;;4207803;28;20485;-51
2021/07/06 00:59:27;;;;;;;0.03;0.03;;;22.30;79.10;;;;;;4207710;28;20413;-51
2021/07/06 01:01:50;;;;;;;0.00;0.00;;;22.30;79.10;;;;;;4207841;28;20055;-50
2021/07/06 01:04:13;;;;;;;0.00;0.00;;;22.40;79.30;;;;;;4207033;28;20044;-49
2021/07/06 01:06:35;;;;;;;0.20;0.20;;;22.30;79.20;;;;;;4199048;28;20043;-53
2021/07/06 01:08:57;;;;;;;0.22;0.22;;;22.30;79.20;;;;;;4207363;28;20535;-49
2021/07/06 01:11:19;;;;;;;0.00;0.00;;;22.30;79.30;;;;;;4207628;28;20044;-50
2021/07/06 01:13:42;;;;;;;0.70;0.70;;;22.30;79.70;;;;;;4207642;28;20048;-50
2021/07/06 01:16:04;;;;;;;0.20;0.20;;;22.30;79.60;;;;;;4207702;28;20418;-47
2021/07/06 01:18:27;;;;;;;0.00;0.00;;;22.40;79.50;;;;;;4205877;28;20052;-52
2021/07/06 01:20:53;;;;;;;0.00;0.00;;;22.30;79.40;;;;;;4206247;28;20460;-51
2021/07/06 01:23:20;;;;;;;0.40;0.40;;;22.30;79.40;;;;;;4190355;28;20053;-52
2021/07/06 01:25:43;;;;;;;0.00;0.00;;;22.30;79.40;;;;;;4192264;28;20048;-48
2021/07/06 01:28:06;;;;;;;0.00;0.00;;;22.30;79.40;;;;;;4207598;28;20044;-52
2021/07/06 01:30:29;;;;;;;0.38;0.38;;;22.30;79.50;;;;;;4207441;28;20044;-53
2021/07/06 01:32:51;;;;;;;2.83;0.65;;;22.30;79.50;;;;;;4200387;28;20139;-54
2021/07/06 01:35:16;;;;;;;0.00;0.00;;;22.30;79.60;;;;;;4190761;28;20129;-50
2021/07/06 01:37:44;;;;;;;0.55;0.32;;;22.30;79.60;;;;;;4207271;28;20410;-50
2021/07/06 01:40:09;;;;;;;0.30;0.30;;;22.30;79.60;;;;;;4207073;28;20048;-51
2021/07/06 01:42:31;;;;;;;0.88;0.50;;;22.30;79.60;;;;;;4207500;28;20150;-49
2021/07/06 01:45:06;;;;;;;0.75;0.73;;;22.30;79.60;;;;;;4201881;28;20123;-52
2021/07/06 01:47:28;;;;;;;0.13;0.13;;;22.30;79.60;;;;;;4190337;28;20509;-49
2021/07/06 01:49:50;;;;;;;0.10;0.10;;;22.30;80.00;;;;;;4190479;28;20047;-54
2021/07/06 01:52:12;;;;;;;0.13;0.13;;;22.30;79.60;;;;;;4190852;28;20123;-56
2021/07/06 01:54:34;;;;;;;0.00;0.00;;;22.20;79.70;;;;;;4190462;28;20063;-54
2021/07/06 01:56:58;;;;;;;0.20;0.20;;;22.20;79.70;;;;;;4190642;28;20574;-54
2021/07/06 01:59:20;;;;;;;0.00;0.00;;;22.20;79.60;;;;;;4191121;28;20079;-51
2021/07/06 02:01:44;;;;;;;0.10;0.10;;;22.20;79.70;;;;;;4203631;28;20741;-50
2021/07/06 02:04:07;;;;;;;0.00;0.00;;;22.20;79.70;;;;;;4210047;28;20064;-53
2021/07/06 02:06:29;;;;;;;0.10;0.10;;;22.20;80.50;;;;;;4193796;28;20052;-52
2021/07/06 02:08:51;;;;;;;0.35;0.35;;;22.20;79.60;;;;;;4193698;28;20137;-52
2021/07/06 02:11:13;;;;;;;0.10;0.10;;;22.20;79.60;;;;;;4193650;28;20132;-49
2021/07/06 02:13:37;;;;;;;0.90;0.90;;;22.20;79.60;;;;;;4193210;28;20423;-54
2021/07/06 02:16:00;;;;;;;0.45;0.45;;;22.20;79.70;;;;;;4193399;28;20051;-51
2021/07/06 02:18:22;;;;;;;0.08;0.08;;;22.20;79.70;;;;;;4193404;28;20059;-50
2021/07/06 02:20:45;;;;;;;0.00;0.00;;;22.20;79.70;;;;;;4193396;28;20052;-51
2021/07/06 02:23:07;;;;;;;0.00;0.00;;;22.20;79.80;;;;;;4191905;28;20519;-54
2021/07/06 02:25:29;;;;;;;0.70;0.70;;;22.10;79.80;;;;;;4193917;28;20040;-53
2021/07/06 02:27:53;;;;;;;0.00;0.00;;;22.20;79.80;;;;;;4193563;28;20494;-54
2021/07/06 02:30:18;;;;;;;0.10;0.10;;;22.10;79.80;;;;;;4193403;28;20494;-50
2021/07/06 02:32:40;;;;;;;0.25;0.25;;;22.10;79.80;;;;;;4193346;28;20137;-52
2021/07/06 02:35:03;;;;;;;0.10;0.10;;;22.10;79.90;;;;;;4193215;28;20422;-49
2021/07/06 02:37:26;;;;;;;0.00;0.00;;;22.10;79.90;;;;;;4192969;28;20875;-50
2021/07/06 02:39:48;;;;;;;0.90;0.90;;;22.10;79.90;;;;;;4193227;28;20050;-48
2021/07/06 02:42:10;;;;;;;0.00;0.00;;;22.10;79.90;;;;;;4193215;28;20067;-49
2021/07/06 02:44:33;;;;;;;0.10;0.10;;;22.10;79.90;;;;;;4193385;28;20554;-53
2021/07/06 02:46:56;;;;;;;0.00;0.00;;;22.10;80.00;;;;;;4193084;28;20110;-52
2021/07/06 02:49:18;;;;;;;0.00;0.00;;;22.10;80.00;;;;;;4193023;28;20556;-48
2021/07/06 02:51:40;;;;;;;0.10;0.10;;;22.10;80.00;;;;;;4198614;28;20510;-51
2021/07/06 02:54:02;;;;;;;0.03;0.03;;;22.10;80.10;;;;;;4210171;28;20060;-52
2021/07/06 02:56:25;;;;;;;0.30;0.30;;;22.10;80.10;;;;;;4209310;28;20068;-49
2021/07/06 02:58:47;;;;;;;0.32;0.32;;;22.10;80.20;;;;;;4209464;28;20520;-52
2021/07/06 03:01:09;;;;;;;0.00;0.00;;;22.10;80.10;;;;;;4209232;28;20047;-49
2021/07/06 03:03:33;;;;;;;0.65;0.32;;;22.10;80.20;;;;;;4207129;28;20047;-50
2021/07/06 03:05:55;;;;;;;0.10;0.10;;;22.10;80.20;;;;;;4199534;28;20128;-51
2021/07/06 03:08:17;;;;;;;0.32;0.32;;;22.10;80.30;;;;;;4209134;28;20044;-54
2021/07/06 03:10:40;;;;;;;0.00;0.00;;;22.10;80.40;;;;;;4209317;28;20109;-50
2021/07/06 03:13:03;;;;;;;0.00;0.00;;;22.10;80.70;;;;;;4207761;28;20139;-53
2021/07/06 03:15:26;;;;;;;0.00;0.00;;;22.10;80.50;;;;;;4207519;28;20465;-50
2021/07/06 03:17:49;;;;;;;0.00;0.00;;;22.00;80.50;;;;;;4209254;28;20547;-53
2021/07/06 03:20:16;;;;;;;0.93;0.73;;;22.00;80.40;;;;;;4207214;28;20051;-51
2021/07/06 03:22:38;;;;;;;0.00;0.00;;;22.10;80.50;;;;;;4192413;28;20051;-52
2021/07/06 03:25:00;;;;;;;1.65;1.45;;;22.00;80.40;;;;;;4208748;28;20477;-51
2021/07/06 03:27:23;;;;;;;0.90;0.57;;;22.00;80.50;;;;;;4209074;28;20048;-53
2021/07/06 03:29:45;;;;;;;0.10;0.10;;;22.00;80.50;;;;;;4209060;28;20043;-52
2021/07/06 03:32:07;;;;;;;0.35;0.35;;;22.00;80.50;;;;;;4208899;28;20142;-50
2021/07/06 03:34:30;;;;;;;0.00;0.00;;;22.00;80.60;;;;;;4208878;28;20503;-52
2021/07/06 03:36:53;;;;;;;0.60;0.60;;;22.10;80.60;;;;;;4192219;28;20470;-52
2021/07/06 03:39:15;;;;;;;0.00;0.00;;;22.00;80.60;;;;;;4190299;28;20044;-49
2021/07/06 03:41:37;;;;;;;0.00;0.00;;;22.00;80.60;;;;;;4191968;28;20044;-51
2021/07/06 03:43:59;;;;;;;0.73;0.70;;;22.00;80.60;;;;;;4201206;28;20048;-50
2021/07/06 03:46:24;;;;;;;0.15;0.15;;;22.00;80.60;;;;;;4208809;28;20062;-50
2021/07/06 03:48:46;;;;;;;0.05;0.05;;;22.00;80.60;;;;;;4208452;28;20048;-52
2021/07/06 03:51:08;;;;;;;0.00;0.00;;;22.00;80.70;;;;;;4207035;28;20052;-49
2021/07/06 03:53:32;;;;;;;0.08;0.08;;;22.00;80.70;;;;;;4207000;28;20044;-49
2021/07/06 03:55:53;;;;;;;0.00;0.00;;;22.00;80.70;;;;;;4204951;28;20555;-49
2021/07/06 03:58:15;;;;;;;0.10;0.10;;;22.00;80.70;;;;;;4207027;28;20089;-52
2021/07/06 04:00:38;;;;;;;0.00;0.00;;;22.00;80.80;;;;;;4208364;28;20043;-50
2021/07/06 04:02:59;;;;;;;0.00;0.00;;;22.00;80.80;;;;;;4207814;28;20060;-50
2021/07/06 04:05:22;;;;;;;0.60;0.52;;;22.00;80.80;;;;;;4200649;28;20141;-52
2021/07/06 04:07:45;;;;;;;0.10;0.10;;;22.00;81.70;;;;;;4191446;28;20045;-48
2021/07/06 04:10:12;;;;;;;0.00;0.00;;;22.00;80.80;;;;;;4191640;28;20098;-51
2021/07/06 04:12:34;;;;;;;0.00;0.00;;;22.00;80.90;;;;;;4190991;28;20463;-49
2021/07/06 04:14:56;;;;;;;0.15;0.15;;;22.00;80.90;;;;;;4196248;28;20105;-49
2021/07/06 04:17:18;;;;;;;0.22;0.22;;;22.00;80.90;;;;;;4208896;28;20101;-51
2021/07/06 04:19:41;;;;;;;0.20;0.20;;;22.00;80.90;;;;;;4206181;28;20142;-48
2021/07/06 04:22:03;;;;;;;0.00;0.00;;;22.00;81.00;;;;;;4191648;28;20087;-50
2021/07/06 04:24:25;;;;;;;0.00;0.00;;;22.00;81.00;;;;;;4191226;28;20507;-53
2021/07/06 04:26:49;;;;;;;0.10;0.10;;;22.00;81.00;;;;;;4189946;28;20055;-54
2021/07/06 04:29:11;;;;;;;0.00;0.00;;;22.00;81.00;;;;;;4191402;28;20491;-50
2021/07/06 04:31:33;;;;;;;0.22;0.22;;;22.00;81.10;;;;;;4191270;28;20495;-54
2021/07/06 04:33:55;;;;;;;0.00;0.00;;;22.00;81.10;;;;;;4191435;28;20071;-49
2021/07/06 04:36:17;;;;;;;0.15;0.15;;;22.00;81.20;;;;;;4191229;28;20058;-50
2021/07/06 04:38:38;;;;;;;0.00;0.00;;;22.00;81.20;;;;;;4191060;28;20504;-48
2021/07/06 04:41:01;;;;;;;0.15;0.15;;;22.00;81.20;;;;;;4191505;28;20505;-50
2021/07/06 04:43:24;;;;;;;0.47;0.28;;;22.00;81.10;;;;;;4203113;28;20054;-49
2021/07/06 04:45:46;;;;;;;0.00;0.00;;;22.00;81.10;;;;;;4207979;28;20070;-52
2021/07/06 04:48:10;;;;;;;0.15;0.15;;;22.00;81.10;;;;;;4207851;28;20060;-49
2021/07/06 04:50:35;;;;;;;0.22;0.22;;;22.00;81.10;;;;;;4193460;28;20056;-50
2021/07/06 04:52:58;;;;;;;0.13;0.13;;;22.00;81.20;;;;;;4191327;28;20051;-50
2021/07/06 04:55:20;;;;;;;0.00;0.00;;;22.00;81.30;;;;;;4190842;28;20044;-53
2021/07/06 04:57:43;;;;;;;0.00;0.00;;;22.00;81.30;;;;;;4191224;28;20052;-49
2021/07/06 05:00:08;;;;;;;0.00;0.00;;;22.00;81.30;;;;;;4191056;28;20139;-49
2021/07/06 05:02:31;;;;;;;0.00;0.00;;;22.00;81.40;;;;;;4197484;28;20448;-52
2021/07/06 05:04:53;;;;;;;0.00;0.00;;;22.00;81.40;;;;;;4196735;28;20052;-49
2021/07/06 05:07:15;;;;;;;0.05;0.05;;;22.00;81.40;;;;;;4191005;28;20477;-48
2021/07/06 05:09:37;;;;;;;0.00;0.00;;;22.00;81.40;;;;;;4191108;28;20082;-51
2021/07/06 05:11:59;;;;;;;0.00;0.00;;;22.00;81.40;;;;;;4190921;28;20072;-50
2021/07/06 05:14:21;;;;;;;0.00;0.00;;;22.00;81.40;;;;;;4191138;28;20056;-50
2021/07/06 05:16:45;;;;;;;0.20;0.20;;;22.00;81.50;;;;;;4190999;28;20104;-50
2021/07/06 05:19:07;;;;;;;0.08;0.08;;;22.00;81.50;;;;;;4191904;28;20096;-50
2021/07/06 05:21:29;;;;;;;0.00;0.00;;;22.00;81.50;;;;;;4191510;28;20521;-50
2021/07/06 05:24:02;;;;;;;0.00;0.00;;;22.00;81.70;;;;;;4224917;27;20496;-50
2021/07/06 05:26:24;;;;;;;0.00;0.00;;;22.00;82.00;;;;;;4204957;28;20048;-50
2021/07/06 05:28:46;;;;;;;0.03;0.03;;;22.10;82.30;;;;;;4207616;28;20048;-47
2021/07/06 05:31:08;;;;;;;0.00;0.00;;;22.10;82.40;;;;;;4206130;28;20051;-48
2021/07/06 05:33:32;;;;;;;0.00;0.00;;;22.10;82.50;;;;;;4190258;28;20492;-51
2021/07/06 05:35:54;;;;;;;0.00;0.00;;;22.20;82.50;;;;;;4191254;28;20052;-54
2021/07/06 05:38:16;;;;;;;0.20;0.20;;;22.20;82.30;;;;;;4199057;28;20052;-50
2021/07/06 05:40:55;;;;;;;0.00;0.00;;;22.30;82.10;;;;;;4210671;28;20052;-53
2021/07/06 05:43:17;;;;;;;0.00;0.00;;;22.20;82.00;;;;;;4205903;27;20048;-51
2021/07/06 05:45:39;;;;;;;0.00;0.00;;;22.30;81.80;;;;;;4197699;28;20054;-49
2021/07/06 05:48:02;;;;;;;0.05;0.05;;;22.30;81.70;;;;;;4193963;28;20051;-48
2021/07/06 05:50:26;;;;;;;0.00;0.00;;;22.30;81.60;;;;;;4210746;28;20127;-50
2021/07/06 05:52:48;;;;;;;0.00;0.00;;;22.30;81.60;;;;;;4209022;28;20121;-50
2021/07/06 05:55:11;;;;;;;0.00;0.00;;;22.30;82.50;;;;;;4210075;28;20552;-54
2021/07/06 05:57:33;;;;;;;0.08;0.08;;;22.30;81.60;;;;;;4209458;28;20052;-51
2021/07/06 05:59:55;;;;;;;0.00;0.00;;;22.30;81.60;;;;;;4210105;28;20127;-51
2021/07/06 06:02:17;;;;;;;0.00;0.00;;;22.30;81.70;;;;;;4210266;28;20123;-50
2021/07/06 06:04:39;;;;;;;0.03;0.03;;;22.30;81.70;;;;;;4198675;28;20055;-49
2021/07/06 06:07:03;;;;;;;0.00;0.00;;;22.30;81.70;;;;;;4191613;28;20046;-55
2021/07/06 06:09:25;;;;;;;0.05;0.05;;;22.20;81.70;;;;;;4203737;28;20046;-53
2021/07/06 06:11:47;;;;;;;0.00;0.00;;;22.20;81.70;;;;;;4226971;28;20043;-50
2021/07/06 06:14:09;;;;;;;0.10;0.10;;;22.20;81.70;;;;;;4226398;27;20047;-53
2021/07/06 06:16:35;;;;;;;0.00;0.00;;;22.20;81.70;;;;;;4215687;28;20051;-50
2021/07/06 06:18:58;;;;;;;0.00;0.00;;;22.20;81.70;;;;;;4207218;28;20051;-49
2021/07/06 06:21:21;;;;;;;0.00;0.00;;;22.20;81.70;;;;;;4199663;28;20453;-50
2021/07/06 06:23:44;;;;;;;0.00;0.00;;;22.20;81.70;;;;;;4193270;28;20048;-54
2021/07/06 06:26:07;;;;;;;0.03;0.03;;;22.20;81.70;;;;;;4199522;27;20782;-53
2021/07/06 06:28:29;;;;;;;0.10;0.10;;;22.20;81.80;;;;;;4193049;28;20062;-51
2021/07/06 06:30:51;;;;;;;0.00;0.00;;;22.20;81.80;;;;;;4202810;28;20048;-52
2021/07/06 06:33:13;;;;;;;0.10;0.10;;;22.20;81.90;;;;;;4209024;28;20049;-48
2021/07/06 06:35:35;;;;;;;0.00;0.00;;;22.20;81.80;;;;;;4209162;27;20391;-50
2021/07/06 06:37:57;;;;;;;0.00;0.00;;;22.20;81.90;;;;;;4208497;28;20071;-49
2021/07/06 06:40:21;;;;;;;0.00;0.00;;;22.20;82.00;;;;;;4207924;28;20040;-53
2021/07/06 06:42:43;;;;;;;0.00;0.00;;;22.20;82.10;;;;;;4209199;28;20052;-50
2021/07/06 06:45:07;;;;;;;0.00;0.00;;;22.20;82.00;;;;;;4209646;28;20070;-49
2021/07/06 06:47:29;;;;;;;0.03;0.03;;;22.20;82.30;;;;;;4209872;28;20067;-52
2021/07/06 06:49:52;;;;;;;0.00;0.00;;;22.30;83.00;;;;;;4193062;28;20121;-60
2021/07/06 06:52:13;;;;;;;0.20;0.20;;;22.30;83.00;;;;;;4192817;28;20114;-48
2021/07/06 06:54:36;;;;;;;0.05;0.05;;;22.40;83.00;;;;;;4192907;28;20131;-49
2021/07/06 06:57:00;;;;;;;0.00;0.00;;;22.40;82.90;;;;;;4192848;28;20498;-50
2021/07/06 06:59:22;;;;;;;0.20;0.20;;;22.40;82.70;;;;;;4199399;28;20064;-49
2021/07/06 07:01:44;;;;;;;0.00;0.00;;;22.40;82.60;;;;;;4209476;28;20448;-50
2021/07/06 07:04:08;;;;;;;1.55;1.05;;;22.40;83.40;;;;;;4196053;28;20571;-49
2021/07/06 07:06:30;;;;;;;0.00;0.00;;;22.30;82.50;;;;;;4192554;28;20491;-49
2021/07/06 07:08:52;;;;;;;0.57;0.57;;;22.30;82.50;;;;;;4201653;28;20079;-49
2021/07/06 07:11:14;;;;;;;0.70;0.70;;;22.30;82.50;;;;;;4192696;28;20529;-48
2021/07/06 07:13:38;;;;;;;0.22;0.22;;;22.30;82.50;;;;;;4195508;28;20067;-51
2021/07/06 07:16:01;;;;;;;0.00;0.00;;;22.30;82.40;;;;;;4209222;28;20538;-48
2021/07/06 07:18:23;;;;;;;0.00;0.00;;;22.30;82.40;;;;;;4209240;28;20130;-47
2021/07/06 07:20:48;;;;;;;0.00;0.00;;;22.30;82.40;;;;;;4208865;28;20143;-50
2021/07/06 07:23:11;;;;;;;0.00;0.00;;;22.30;82.40;;;;;;4208992;28;20048;-47
2021/07/06 07:25:33;;;;;;;0.00;0.00;;;22.30;82.50;;;;;;4207779;28;20075;-48
2021/07/06 07:27:55;;;;;;;0.00;0.00;;;22.30;82.40;;;;;;4192147;28;20494;-50
2021/07/06 07:30:20;;;;;;;0.00;0.00;;;22.30;82.50;;;;;;4192352;28;20862;-49
2021/07/06 07:32:44;;;;;;;0.25;0.25;;;22.30;82.40;;;;;;4192336;28;20127;-48
2021/07/06 07:35:07;;;;;;;0.00;0.00;;;22.30;82.40;;;;;;4192118;28;20131;-49
2021/07/06 07:37:29;;;;;;;0.00;0.00;;;22.30;82.40;;;;;;4191222;28;20053;-52
2021/07/06 07:39:51;;;;;;;0.00;0.00;;;22.30;82.40;;;;;;4192008;28;20114;-48
2021/07/06 07:42:14;;;;;;;0.00;0.00;;;22.30;82.40;;;;;;4192121;28;20125;-54
2021/07/06 07:44:36;;;;;;;0.00;0.00;;;22.30;82.40;;;;;;4191926;28;20040;-49
2021/07/06 07:47:00;;;;;;;0.00;0.00;;;22.30;82.40;;;;;;4192103;28;20107;-51
2021/07/06 07:49:22;;;;;;;0.38;0.38;;;22.30;82.40;;;;;;4192019;28;20098;-50
2021/07/06 07:51:45;;;;;;;0.03;0.03;;;22.30;82.40;;;;;;4191623;28;20049;-48
2021/07/06 07:54:06;;;;;;;0.00;0.00;;;22.30;82.40;;;;;;4191680;28;20057;-50
2021/07/06 07:56:29;;;;;;;0.00;0.00;;;22.30;82.50;;;;;;4191272;28;20044;-49
2021/07/06 07:58:52;;;;;;;0.10;0.10;;;22.30;82.50;;;;;;4191477;28;20048;-49
2021/07/06 08:01:14;;;;;;;0.00;0.00;;;22.30;82.50;;;;;;4192523;27;20057;-53
2021/07/06 08:03:38;;;;;;;0.00;0.00;;;22.30;82.50;;;;;;4185501;28;20044;-49
2021/07/06 08:06:01;;;;;;;0.00;0.00;;;22.30;82.50;;;;;;4191083;28;20067;-52
2021/07/06 08:08:22;;;;;;;0.00;0.00;;;22.30;82.50;;;;;;4199428;28;20079;-49
2021/07/06 08:10:46;;;;;;;0.25;0.25;;;22.30;82.40;;;;;;4191702;28;20434;-50
2021/07/06 08:13:09;;;;;;;0.00;0.00;;;22.30;82.50;;;;;;4189499;28;20052;-48
2021/07/06 08:15:31;;;;;;;0.00;0.00;;;22.30;82.40;;;;;;4191632;28;20161;-51
2021/07/06 08:17:54;;;;;;;0.00;0.00;;;22.30;82.50;;;;;;4191668;28;20048;-54
2021/07/06 08:20:17;;;;;;;0.00;0.00;;;22.30;82.50;;;;;;4191170;28;20098;-50
2021/07/06 08:22:39;;;;;;;0.10;0.10;;;22.30;82.50;;;;;;4190660;28;20048;-51
2021/07/06 08:25:02;;;;;;;0.00;0.00;;;22.30;82.60;;;;;;4200865;28;20740;-52
2021/07/06 08:27:24;;;;;;;0.05;0.05;;;22.40;84.00;;;;;;4199905;28;20036;-51
2021/07/06 08:29:46;;;;;;;0.00;0.00;;;22.40;83.80;;;;;;4191322;28;20122;-60
2021/07/06 08:32:11;;;;;;;0.10;0.10;;;22.40;83.60;;;;;;4191388;28;20055;-51
2021/07/06 08:34:33;;;;;;;0.47;0.45;;;22.40;83.40;;;;;;4205343;28;20794;-52
2021/07/06 08:36:56;;;;;;;0.00;0.00;;;22.40;83.30;;;;;;4202625;28;20082;-50
2021/07/06 08:39:19;;;;;;;0.00;0.00;;;22.40;83.20;;;;;;4191370;28;20041;-49
2021/07/06 08:41:41;;;;;;;0.10;0.10;;;22.40;83.10;;;;;;4196660;28;20070;-51
2021/07/06 08:44:04;;;;;;;0.00;0.00;;;22.40;83.00;;;;;;4195023;28;20563;-51
2021/07/06 08:46:28;;;;;;;1.10;1.02;;;22.40;83.00;;;;;;4191096;28;20044;-54
2021/07/06 08:48:51;;;;;;;0.00;0.00;;;22.40;83.00;;;;;;4191532;28;20048;-50
2021/07/06 08:51:16;;;;;;;0.00;0.00;;;22.40;83.80;;;;;;4202166;28;20061;-50
2021/07/06 08:53:40;;;;;;;0.00;0.00;;;22.40;82.90;;;;;;4190727;28;20052;-52
2021/07/06 08:56:02;;;;;;;0.05;0.05;;;22.50;82.90;;;;;;4204477;28;20058;-47
2021/07/06 08:58:25;;;;;;;0.00;0.00;;;22.50;82.80;;;;;;4196722;28;20123;-51
2021/07/06 09:00:47;;;;;;;0.10;0.10;;;22.50;82.80;;;;;;4191735;28;20120;-50
2021/07/06 09:03:09;;;;;;;0.00;0.00;;;22.50;82.70;;;;;;4195560;28;20056;-51
2021/07/06 09:05:33;;;;;;;0.93;0.10;;;22.50;82.70;;;;;;4206297;28;20459;-51
2021/07/06 09:07:55;;;;;;;0.00;0.00;;;22.50;82.60;;;;;;4195021;28;20050;-48
2021/07/06 09:10:20;;;;;;;0.03;0.03;;;22.60;82.60;;;;;;4203701;27;20080;-50
2021/07/06 09:12:42;;;;;;;0.00;0.00;;;22.60;82.50;;;;;;4207399;28;20056;-50
2021/07/06 09:15:26;;;;;;;0.00;0.00;;;22.60;82.40;;;;;;4179328;28;20052;-52
2021/07/06 09:18:03;;;;;;;0.00;0.00;;;22.60;82.40;;;;;;4192470;28;20044;-50
2021/07/06 09:20:26;;;;;;;0.00;0.00;;;22.60;82.40;;;;;;4189689;28;20033;-50
2021/07/06 09:22:48;;;;;;;0.00;0.00;;;22.70;82.40;;;;;;4199545;28;20829;-51
2021/07/06 09:25:11;;;;;;;0.00;0.00;;;22.70;82.20;;;;;;4201544;28;20047;-51
2021/07/06 09:27:36;;;;;;;0.00;0.00;;;22.80;82.20;;;;;;4210372;27;20059;-53
2021/07/06 09:30:11;;;;;;;0.00;0.00;;;22.70;82.20;;;;;;4210568;27;20044;-48
2021/07/06 09:32:42;;;;;;;0.00;0.00;;;22.80;82.10;;;;;;4209225;27;20124;-50
2021/07/06 09:35:10;;;;;;;0.00;0.00;;;22.80;82.00;;;;;;4210911;27;20082;-51
2021/07/06 09:37:32;;;;;;;0.10;0.10;;;22.90;82.10;;;;;;4207850;27;20128;-48
2021/07/06 09:39:56;;;;;;;0.00;0.00;;;22.90;81.80;;;;;;4200895;28;20076;-52
2021/07/06 09:42:18;;;;;;;0.00;0.00;;;23.00;81.70;;;;;;4196828;28;20052;-52
2021/07/06 09:44:42;;;;;;;0.00;0.00;;;23.00;81.40;;;;;;4200941;28;20064;-52
2021/07/06 09:47:07;;;;;;;0.68;0.68;;;23.10;81.20;;;;;;4192786;28;20922;-49
2021/07/06 09:49:32;;;;;;;0.00;0.00;;;23.10;81.00;;;;;;4206250;28;20040;-52
2021/07/06 09:51:54;;;;;;;0.00;0.00;;;23.10;80.80;;;;;;4209792;28;20040;-52
2021/07/06 09:54:34;;;;;;;0.00;0.00;;;23.20;80.70;;;;;;4210535;28;20842;-49
2021/07/06 09:57:12;;;;;;;0.00;0.00;;;23.20;80.60;;;;;;4205929;28;20490;-51
2021/07/06 09:59:35;;;;;;;0.00;0.00;;;23.20;80.40;;;;;;4207610;28;20077;-51
2021/07/06 10:02:03;;;;;;;0.25;0.25;;;23.30;80.30;;;;;;4209952;28;20047;-53
2021/07/06 10:04:26;;;;;;;0.35;0.35;;;23.30;80.00;;;;;;4201431;28;20044;-53
2021/07/06 10:06:48;;;;;;;0.00;0.00;;;23.30;79.80;;;;;;4207343;28;20044;-52
2021/07/06 10:09:11;;;;;;;0.28;0.28;;;23.40;79.60;;;;;;4202597;28;20048;-56
2021/07/06 10:11:33;;;;;;;0.00;0.00;;;23.40;79.40;;;;;;4196838;28;20040;-54
2021/07/06 10:13:57;;;;;;;0.20;0.20;;;23.40;79.20;;;;;;4200647;28;20521;-50
2021/07/06 10:16:19;;;;;;;0.00;0.00;;;23.40;78.90;;;;;;4204004;28;20557;-50
2021/07/06 10:18:43;;;;;;;0.10;0.10;;;23.50;78.90;;;;;;4209742;28;20076;-54
2021/07/06 10:21:06;;;;;;;0.30;0.30;;;23.50;78.70;;;;;;4209902;27;20048;-56
2021/07/06 10:23:29;;;;;;;0.00;0.00;;;23.50;78.60;;;;;;4209153;27;20067;-56
2021/07/06 10:25:54;;;;;;;0.00;0.00;;;23.50;78.40;;;;;;4209895;28;20052;-54
2021/07/06 10:28:18;;;;;;;0.00;0.00;;;23.50;78.10;;;;;;4209978;28;20383;-54
2021/07/06 10:30:42;;;;;;;0.00;0.00;;;23.50;77.90;;;;;;4209921;28;20059;-51
2021/07/06 10:33:06;;;;;;;0.00;0.00;;;23.50;77.70;;;;;;4209858;28;20093;-54
2021/07/06 10:35:48;;;;;;;0.00;0.00;;;23.50;77.50;;;;;;4209482;28;20497;-56
2021/07/06 10:38:43;;;;;;;0.00;0.00;;;23.50;77.30;;;;;;4193009;28;20117;-52
2021/07/06 10:41:07;;;;;;;0.00;0.00;;;23.50;77.20;;;;;;4193298;28;20510;-55
2021/07/06 10:43:31;;;;;;;0.00;0.00;;;23.50;77.10;;;;;;4191961;28;20052;-54
2021/07/06 10:45:53;;;;;;;0.00;0.00;;;23.50;77.10;;;;;;4193123;28;20086;-54
2021/07/06 10:48:39;;;;;;;0.00;0.00;;;23.50;77.00;;;;;;4175483;28;20053;-54
2021/07/06 10:51:02;;;;;;;0.10;0.10;;;23.60;76.90;;;;;;4195186;28;20536;-53
2021/07/06 10:53:26;;;;;;;0.03;0.03;;;23.60;76.70;;;;;;4201009;28;20166;-53
2021/07/06 10:56:00;;;;;;;0.00;0.00;;;23.60;76.50;;;;;;4192831;28;20060;-52
2021/07/06 10:58:52;;;;;;;0.05;0.05;;;23.60;76.50;;;;;;4196977;28;20054;-53
2021/07/06 11:01:58;;;;;;;0.10;0.10;;;23.70;76.30;;;;;;4209398;28;20132;-55
2021/07/06 11:05:02;;;;;;;0.00;0.00;;;23.70;76.10;;;;;;4190061;28;20052;-53
2021/07/06 11:07:53;;;;;;;0.00;0.00;;;23.80;76.00;;;;;;4191461;28;20036;-51
2021/07/06 11:10:42;;;;;;;0.45;0.45;;;23.80;75.90;;;;;;4203927;28;20813;-55
2021/07/06 11:13:29;;;;;;;0.00;0.00;;;23.80;75.80;;;;;;4192597;28;20499;-53
2021/07/06 11:15:51;;;;;;;0.00;0.00;;;23.80;75.70;;;;;;4175905;28;20050;-53
2021/07/06 11:18:15;;;;;;;0.00;0.00;;;23.80;75.60;;;;;;4176201;28;20127;-52
2021/07/06 11:20:42;;;;;;;0.00;0.00;;;23.80;75.60;;;;;;4175850;28;20049;-53
2021/07/06 11:23:07;;;;;;;0.10;0.10;;;23.70;75.50;;;;;;4192519;28;20143;-53
2021/07/06 11:25:38;;;;;;;0.00;0.00;;;23.70;75.40;;;;;;4191582;28;20543;-57
2021/07/06 11:28:02;;;;;;;0.00;0.00;;;23.70;75.50;;;;;;4196146;28;20055;-59
2021/07/06 11:30:26;;;;;;;0.00;0.00;;;23.70;76.30;;;;;;4209003;28;20079;-57
2021/07/06 11:33:04;;;;;;;3.13;1.45;;;23.70;76.20;;;;;;4209181;28;20178;-55
2021/07/06 11:35:27;;;;;;;0.00;0.00;;;23.80;75.40;;;;;;4191387;28;20107;-54
2021/07/06 11:37:49;;;;;;;0.00;0.00;;;23.70;75.10;;;;;;4208730;28;20441;-53
2021/07/06 11:40:17;;;;;;;0.20;0.20;;;23.60;74.80;;;;;;4192389;28;20102;-53
2021/07/06 11:42:40;;;;;;;0.00;0.00;;;23.60;74.60;;;;;;4198561;28;20135;-56
2021/07/06 11:45:05;;;;;;;0.00;0.00;;;23.50;74.60;;;;;;4208231;28;20055;-56
2021/07/06 11:47:27;;;;;;;0.00;0.00;;;23.50;74.50;;;;;;4208711;28;20040;-54
2021/07/06 11:49:49;;;;;;;0.22;0.22;;;23.50;74.60;;;;;;4208611;28;20043;-54
2021/07/06 11:52:11;;;;;;;0.00;0.00;;;23.50;74.30;;;;;;4195578;28;20071;-55
2021/07/06 11:54:34;;;;;;;0.00;0.00;;;23.50;75.30;;;;;;4191909;28;20066;-54
2021/07/06 11:57:04;;;;;;;0.00;0.00;;;23.60;74.30;;;;;;4175295;28;20499;-57
2021/07/06 11:59:27;;;;;;;2.90;1.35;;;23.60;74.10;;;;;;4174607;28;20139;-55
2021/07/06 12:01:49;;;;;;;0.00;0.00;;;23.60;73.90;;;;;;4190189;28;20111;-55
2021/07/06 12:04:11;;;;;;;0.03;0.03;;;23.70;73.70;;;;;;4191594;28;20044;-55
2021/07/06 12:06:33;;;;;;;0.10;0.10;;;23.70;73.60;;;;;;4191274;28;20052;-55
2021/07/06 12:08:56;;;;;;;0.00;0.00;;;23.70;73.40;;;;;;4181396;28;20053;-53
2021/07/06 12:11:21;;;;;;;0.00;0.00;;;23.80;73.30;;;;;;4175401;28;20083;-56
2021/07/06 12:13:50;;;;;;;0.00;0.00;;;23.80;73.10;;;;;;4175057;28;20079;-56
2021/07/06 12:16:15;;;;;;;0.00;0.00;;;23.80;72.90;;;;;;4189249;28;20041;-54
2021/07/06 12:18:48;;;;;;;0.30;0.30;;;23.90;72.60;;;;;;4186683;28;20056;-55
2021/07/06 12:21:10;;;;;;;0.00;0.00;;;23.90;72.20;;;;;;4174652;28;20083;-53
2021/07/06 12:23:37;;;;;;;0.00;0.00;;;23.90;71.70;;;;;;4198405;28;20048;-55
2021/07/06 12:26:00;;;;;;;0.00;0.00;;;23.90;71.20;;;;;;4178800;28;20556;-54
2021/07/06 12:28:23;;;;;;;0.00;0.00;;;24.00;70.90;;;;;;4175108;28;20090;-51
2021/07/06 12:31:13;;;;;;;0.00;0.00;;;24.00;70.50;;;;;;4176017;28;20052;-52
2021/07/06 12:33:35;;;;;;;0.00;0.00;;;24.00;70.10;;;;;;4191197;28;20102;-54